KSLG/SLG METAR and TAF weather

Enter ICAO airport designator
Station Type Date Time Source
KSLG METAR 2021/07/26 16:56 UTC NOAA

KSLG 261656Z AUTO VRB03KT 10SM FEW028 31/24 A3004 RMK AO2 SLP160 T03060244 TSNO


Station Type Date Time Source
KSLG Decoded METAR 2021/07/26 16:56 UTC NOAA

Siloam Springs, Smith Field Airport, AR, United States (KSLG) 36-12N 094-29W
Jul 26, 2021 - 12:56 PM EDT / 2021.07.26 1656 UTC
Wind: Variable at 3 MPH (3 KT):0
Visibility: 10 mile(s):0
Sky conditions: mostly clear
Temperature: 87.1 F (30.6 C)
Heat index: 97.3 F (36.3 C):1
Dew Point: 75.9 F (24.4 C)
Relative Humidity: 69%
Pressure (altimeter): 30.04 in. Hg (1017 hPa)
ob: KSLG 261656Z AUTO VRB03KT 10SM FEW028 31/24 A3004 RMK AO2 SLP160 T03060244 TSNO
cycle: 17

Station Type Date Time Source
KSLG TAF UTC NOAA

Error!

Example: see airport list